Time;durP1;ratioP1;P1;durP2;ratioP2;P2;SDS_P1;SDS_P2;PMS_P1;PMS_P2;Temp;Humidity;BMP_temperature;BMP_pressure;BME280_temperature;BME280_humidity;BME280_pressure;Samples;Min_cycle;Max_cycle;Signal;HPM_P1;HPM_P2
2022/02/17 00:00:58;;;;;;;50.20;7.87;;;11.70;99.90;;;;;;5103667;27;37189;-77
2022/02/17 00:03:25;;;;;;;41.57;9.57;;;11.70;99.90;;;;;;5099788;27;38723;-76
2022/02/17 00:05:51;;;;;;;39.87;6.87;;;11.70;99.90;;;;;;5088430;27;37251;-76
2022/02/17 00:08:18;;;;;;;43.20;8.77;;;11.60;99.90;;;;;;5106807;27;38746;-76
2022/02/17 00:10:44;;;;;;;44.70;8.63;;;11.60;99.90;;;;;;5080429;27;38116;-75
2022/02/17 00:13:10;;;;;;;42.13;8.57;;;11.60;99.90;;;;;;5090161;27;39641;-76
2022/02/17 00:15:36;;;;;;;50.03;9.03;;;11.60;99.90;;;;;;5087417;27;37660;-76
2022/02/17 00:18:11;;;;;;;51.80;9.75;;;11.60;99.90;;;;;;5119866;27;38202;-76
2022/02/17 00:20:37;;;;;;;45.53;7.60;;;11.60;99.90;;;;;;5092899;27;38848;-76
2022/02/17 00:23:04;;;;;;;48.43;8.87;;;11.70;99.90;;;;;;5110422;27;39343;-75
2022/02/17 00:25:30;;;;;;;45.70;8.13;;;11.70;99.90;;;;;;5108907;27;38311;-75
2022/02/17 00:27:56;;;;;;;53.33;8.13;;;11.60;99.90;;;;;;5109411;27;38732;-75
2022/02/17 00:30:22;;;;;;;47.38;8.57;;;11.60;99.90;;;;;;5100117;27;38591;-76
2022/02/17 00:32:48;;;;;;;51.78;8.90;;;11.60;99.90;;;;;;5103992;27;39761;-76
2022/02/17 00:35:14;;;;;;;55.03;8.93;;;11.60;99.90;;;;;;5107489;27;38957;-76
2022/02/17 00:37:40;;;;;;;55.67;9.15;;;11.70;99.90;;;;;;5104199;27;37680;-76
2022/02/17 00:40:07;;;;;;;63.63;8.85;;;11.70;99.90;;;;;;5105401;27;37202;-76
2022/02/17 00:42:36;;;;;;;58.03;8.07;;;11.70;99.90;;;;;;5088080;27;40767;-75
2022/02/17 00:45:04;;;;;;;54.55;9.85;;;11.70;99.90;;;;;;5103485;27;39421;-76
2022/02/17 00:47:30;;;;;;;48.47;7.90;;;11.60;99.90;;;;;;5108545;27;47574;-79
2022/02/17 00:49:56;;;;;;;56.53;9.23;;;11.60;99.90;;;;;;5085503;27;36497;-76
2022/02/17 00:52:22;;;;;;;51.13;8.55;;;11.60;99.90;;;;;;5110190;27;38842;-75
2022/02/17 00:54:48;;;;;;;43.15;7.15;;;11.50;99.90;;;;;;5100395;27;38085;-77
2022/02/17 00:57:15;;;;;;;46.95;8.32;;;11.40;99.90;;;;;;5087270;27;38611;-76
2022/02/17 00:59:44;;;;;;;45.67;7.55;;;11.40;99.90;;;;;;5095693;27;38200;-77
2022/02/17 01:02:10;;;;;;;48.10;7.80;;;11.40;99.90;;;;;;5097590;27;39642;-77
2022/02/17 01:04:36;;;;;;;44.03;8.00;;;11.40;99.90;;;;;;5111194;27;39527;-78
2022/02/17 01:07:03;;;;;;;50.40;8.13;;;11.30;99.90;;;;;;5088634;28;37910;-77
2022/02/17 01:09:29;;;;;;;50.43;9.20;;;11.30;99.90;;;;;;5083694;27;36820;-77
2022/02/17 01:11:55;;;;;;;58.77;10.07;;;11.20;99.90;;;;;;5078941;27;38750;-77
2022/02/17 01:14:21;;;;;;;59.67;9.07;;;11.20;99.90;;;;;;5088312;27;39389;-76
2022/02/17 01:16:47;;;;;;;53.53;9.07;;;11.20;99.90;;;;;;5078833;27;38860;-79
2022/02/17 01:19:14;;;;;;;69.70;9.93;;;11.20;99.90;;;;;;5087019;27;38454;-77
2022/02/17 01:21:40;;;;;;;53.53;9.57;;;11.30;99.90;;;;;;5079997;27;40714;-78
2022/02/17 01:24:06;;;;;;;45.07;7.60;;;11.30;99.90;;;;;;5086575;27;38724;-75
2022/02/17 01:26:32;;;;;;;42.83;7.53;;;11.20;99.90;;;;;;5087102;27;36733;-77
2022/02/17 01:28:59;;;;;;;54.70;8.10;;;11.20;99.90;;;;;;5074363;27;37770;-77
2022/02/17 01:31:25;;;;;;;49.43;8.97;;;11.20;99.90;;;;;;5083312;27;39937;-77
2022/02/17 01:33:51;;;;;;;47.17;8.50;;;11.10;99.90;;;;;;5109458;27;39186;-76
2022/02/17 01:36:17;;;;;;;46.27;8.00;;;11.10;99.90;;;;;;5084874;27;40126;-77
2022/02/17 01:38:47;;;;;;;46.00;8.00;;;11.10;99.90;;;;;;5085437;27;39330;-75
2022/02/17 01:41:16;;;;;;;44.10;7.27;;;11.00;99.90;;;;;;5095853;27;38783;-76
2022/02/17 01:43:42;;;;;;;42.90;6.37;;;11.00;99.90;;;;;;5080008;27;39412;-76
2022/02/17 01:46:09;;;;;;;43.40;7.03;;;11.00;99.90;;;;;;5080357;27;38624;-76
2022/02/17 01:48:35;;;;;;;34.07;6.87;;;10.90;99.90;;;;;;5090051;27;37404;-79
2022/02/17 01:51:01;;;;;;;38.00;5.93;;;11.00;99.90;;;;;;5086418;27;38619;-76
2022/02/17 01:53:27;;;;;;;45.87;6.13;;;10.90;99.90;;;;;;5083531;27;39874;-79
2022/02/17 01:55:55;;;;;;;41.27;6.87;;;10.90;99.90;;;;;;5097961;27;38637;-78
2022/02/17 01:58:21;;;;;;;46.47;8.33;;;10.90;99.90;;;;;;5102030;27;37313;-78
2022/02/17 02:00:48;;;;;;;46.53;7.60;;;10.80;99.90;;;;;;5084744;27;39463;-78
2022/02/17 02:03:14;;;;;;;48.77;8.63;;;10.80;99.90;;;;;;5074364;27;40000;-78
2022/02/17 02:05:41;;;;;;;44.20;7.17;;;10.80;99.90;;;;;;5107459;27;37841;-78
2022/02/17 02:08:09;;;;;;;53.40;7.37;;;10.70;99.90;;;;;;5094455;27;35879;-77
2022/02/17 02:10:36;;;;;;;41.83;7.20;;;10.70;99.90;;;;;;5088564;27;41024;-78
2022/02/17 02:13:03;;;;;;;38.10;8.50;;;10.70;99.90;;;;;;5087431;27;38200;-77
2022/02/17 02:16:06;;;;;;;36.37;6.57;;;10.70;99.90;;;;;;5078487;27;38427;-77
2022/02/17 02:18:33;;;;;;;41.00;7.10;;;10.80;99.90;;;;;;4975847;28;47944;-77
2022/02/17 02:21:02;;;;;;;30.80;6.13;;;10.80;99.90;;;;;;5060351;28;38699;-78
2022/02/17 02:23:28;;;;;;;37.03;5.37;;;10.80;99.90;;;;;;5072239;27;46886;-80
2022/02/17 02:25:55;;;;;;;39.53;6.33;;;10.90;99.90;;;;;;5080513;27;40057;-78
2022/02/17 02:28:24;;;;;;;37.03;5.90;;;11.00;99.90;;;;;;5100749;27;37126;-78
2022/02/17 02:30:51;;;;;;;37.07;6.00;;;10.90;99.90;;;;;;5082091;27;39932;-78
2022/02/17 02:33:18;;;;;;;48.70;8.53;;;10.80;99.90;;;;;;5093526;27;38496;-78
2022/02/17 02:35:45;;;;;;;36.77;6.97;;;10.70;99.90;;;;;;5089765;27;39852;-78
2022/02/17 02:38:12;;;;;;;45.80;7.43;;;10.70;99.90;;;;;;5101693;27;35045;-76
2022/02/17 02:40:38;;;;;;;34.23;6.10;;;10.60;99.90;;;;;;5098407;27;38802;-78
2022/02/17 02:43:05;;;;;;;41.20;7.83;;;10.60;99.90;;;;;;5082205;28;38499;-77
2022/02/17 02:45:32;;;;;;;36.13;6.00;;;10.60;99.90;;;;;;5101891;27;37963;-78
2022/02/17 02:48:05;;;;;;;37.43;6.80;;;10.60;99.90;;;;;;5118047;27;35792;-78
2022/02/17 02:50:32;;;;;;;35.50;6.83;;;10.60;99.90;;;;;;5092768;27;48412;-80
2022/02/17 02:52:58;;;;;;;33.47;5.13;;;10.60;99.90;;;;;;5090622;27;37541;-78
2022/02/17 02:55:25;;;;;;;28.17;4.90;;;10.80;99.90;;;;;;5082244;27;38453;-77
2022/02/17 02:57:52;;;;;;;22.10;4.47;;;10.90;99.90;;;;;;5102945;27;37142;-77
2022/02/17 03:00:18;;;;;;;26.47;4.53;;;11.00;99.90;;;;;;5085971;27;40218;-78
2022/02/17 03:02:44;;;;;;;28.80;5.27;;;11.00;99.90;;;;;;5082095;27;37636;-78
2022/02/17 03:05:11;;;;;;;26.67;5.03;;;11.10;99.90;;;;;;5099385;27;38815;-76
2022/02/17 03:07:37;;;;;;;28.67;5.23;;;11.10;99.90;;;;;;5103992;27;38221;-75
2022/02/17 03:10:05;;;;;;;25.50;5.53;;;11.10;99.90;;;;;;5083895;27;39588;-76
2022/02/17 03:12:33;;;;;;;44.63;6.50;;;11.00;99.90;;;;;;5078104;27;48641;-76
2022/02/17 03:14:59;;;;;;;40.67;7.30;;;10.90;99.90;;;;;;5096910;27;38263;-75
2022/02/17 03:17:26;;;;;;;42.40;7.40;;;10.70;99.90;;;;;;5096539;27;37193;-77
2022/02/17 03:19:52;;;;;;;50.97;8.57;;;10.60;99.90;;;;;;5107906;27;38613;-77
2022/02/17 03:22:18;;;;;;;52.53;8.17;;;10.50;99.90;;;;;;5084176;27;37833;-77
2022/02/17 03:24:44;;;;;;;42.73;8.03;;;10.40;99.90;;;;;;5098755;27;38806;-76
2022/02/17 03:27:10;;;;;;;51.93;7.60;;;10.40;99.90;;;;;;5078225;27;37943;-76
2022/02/17 03:29:37;;;;;;;60.37;9.20;;;10.50;99.90;;;;;;5080744;27;39810;-77
2022/02/17 03:32:04;;;;;;;51.17;8.27;;;10.40;99.90;;;;;;5078745;27;39901;-77
2022/02/17 03:34:30;;;;;;;46.13;9.07;;;10.50;99.90;;;;;;5101237;27;37736;-78
2022/02/17 03:36:56;;;;;;;50.63;8.70;;;10.50;99.90;;;;;;5076420;27;37858;-76
2022/02/17 03:39:22;;;;;;;62.60;9.73;;;10.50;99.90;;;;;;5113017;27;38707;-78
2022/02/17 03:41:48;;;;;;;57.87;8.53;;;10.50;99.90;;;;;;5098966;27;37595;-78
2022/02/17 03:44:14;;;;;;;49.07;8.33;;;10.40;99.90;;;;;;5100292;27;38831;-75
2022/02/17 03:46:43;;;;;;;48.63;8.77;;;10.40;99.90;;;;;;5102385;27;38385;-76
2022/02/17 03:49:09;;;;;;;55.13;9.37;;;10.40;99.90;;;;;;5104238;27;39055;-76
2022/02/17 03:51:35;;;;;;;50.37;9.23;;;10.30;99.90;;;;;;5080480;27;39351;-76
2022/02/17 03:54:02;;;;;;;50.03;7.40;;;10.30;99.90;;;;;;5104055;27;38180;-77
2022/02/17 03:56:28;;;;;;;55.87;8.83;;;10.30;99.90;;;;;;5085951;27;47234;-76
2022/02/17 03:59:04;;;;;;;45.20;7.50;;;10.30;99.90;;;;;;5088997;27;38327;-75
2022/02/17 04:01:33;;;;;;;57.77;9.30;;;10.20;99.90;;;;;;5082795;27;47228;-75
2022/02/17 04:04:01;;;;;;;48.07;8.70;;;10.30;99.90;;;;;;5083407;27;39003;-76
2022/02/17 04:06:27;;;;;;;55.23;10.47;;;10.20;99.90;;;;;;5077660;27;46771;-77
2022/02/17 04:08:54;;;;;;;57.50;9.93;;;10.20;99.90;;;;;;5085605;27;40440;-76
2022/02/17 04:11:20;;;;;;;50.77;9.10;;;10.20;99.90;;;;;;5083553;27;38986;-76
2022/02/17 04:13:48;;;;;;;63.30;12.27;;;10.20;99.90;;;;;;5081271;27;38688;-76
2022/02/17 04:16:18;;;;;;;56.03;9.30;;;10.30;99.90;;;;;;5079354;27;38643;-77
2022/02/17 04:18:45;;;;;;;58.20;10.47;;;10.30;99.90;;;;;;5097934;27;39460;-75
2022/02/17 04:21:13;;;;;;;55.63;8.73;;;10.30;99.90;;;;;;5083768;27;37557;-75
2022/02/17 04:23:44;;;;;;;64.77;10.00;;;10.40;99.90;;;;;;5084920;27;38431;-77
2022/02/17 04:26:16;;;;;;;56.70;9.90;;;10.40;99.90;;;;;;5084142;27;38019;-75
2022/02/17 04:28:43;;;;;;;65.60;11.35;;;10.30;99.90;;;;;;5086858;27;37660;-76
2022/02/17 04:31:10;;;;;;;61.97;11.10;;;10.30;99.90;;;;;;5071767;27;38880;-76
2022/02/17 04:33:38;;;;;;;59.70;10.37;;;10.30;99.90;;;;;;5082226;27;38838;-76
2022/02/17 04:36:05;;;;;;;56.43;10.50;;;10.40;99.90;;;;;;5082093;27;37833;-76
2022/02/17 04:38:32;;;;;;;59.97;9.47;;;10.40;99.90;;;;;;5083402;27;39002;-76
2022/02/17 04:43:44;;;;;;;58.77;9.30;;;10.40;99.90;;;;;;5082889;27;49761;-76
2022/02/17 04:46:11;;;;;;;56.13;10.07;;;10.50;99.90;;;;;;5082288;27;37384;-76
2022/02/17 04:48:40;;;;;;;54.23;10.50;;;10.50;99.90;;;;;;5076426;27;38464;-76
2022/02/17 04:51:06;;;;;;;52.50;9.10;;;10.60;99.90;;;;;;5080613;27;38217;-76
2022/02/17 04:53:32;;;;;;;40.07;7.90;;;10.60;99.90;;;;;;5075776;27;39141;-75
2022/02/17 04:55:59;;;;;;;51.93;9.10;;;10.60;99.90;;;;;;5071225;27;37385;-75
2022/02/17 04:58:25;;;;;;;49.57;9.63;;;10.60;99.90;;;;;;5079189;27;38545;-74
2022/02/17 05:00:51;;;;;;;44.70;7.53;;;10.60;99.90;;;;;;5081661;27;38335;-75
2022/02/17 05:03:19;;;;;;;45.70;8.40;;;10.70;99.90;;;;;;5074900;27;38809;-76
2022/02/17 05:05:45;;;;;;;55.77;9.87;;;10.70;99.90;;;;;;5076920;27;36437;-75
2022/02/17 05:08:11;;;;;;;48.57;8.10;;;10.70;99.90;;;;;;5079233;27;39183;-76
2022/02/17 05:10:38;;;;;;;44.37;7.33;;;10.60;99.90;;;;;;5083178;27;39393;-75
2022/02/17 05:13:05;;;;;;;55.20;9.13;;;10.60;99.90;;;;;;5082004;27;38934;-75
2022/02/17 05:15:31;;;;;;;45.30;7.80;;;10.70;99.90;;;;;;5079463;27;38868;-75
2022/02/17 05:17:57;;;;;;;52.83;9.17;;;10.60;99.90;;;;;;5077724;27;38821;-77
2022/02/17 05:20:24;;;;;;;41.10;8.03;;;10.60;99.90;;;;;;5068994;27;39181;-76
2022/02/17 05:22:50;;;;;;;42.30;7.90;;;10.60;99.90;;;;;;5082378;27;39213;-76
2022/02/17 05:25:16;;;;;;;45.40;7.67;;;10.50;99.90;;;;;;5083594;27;37478;-75
2022/02/17 05:27:42;;;;;;;43.77;7.17;;;10.40;99.90;;;;;;5078327;27;38856;-76
2022/02/17 05:30:09;;;;;;;43.13;7.33;;;10.30;99.90;;;;;;5076589;27;39023;-76
2022/02/17 05:32:44;;;;;;;41.53;7.37;;;10.30;99.90;;;;;;5085296;27;40307;-76
2022/02/17 05:35:11;;;;;;;33.57;6.33;;;10.30;99.90;;;;;;5079454;27;39632;-77
2022/02/17 05:37:39;;;;;;;39.03;7.57;;;10.20;99.90;;;;;;5082193;27;39372;-77
2022/02/17 05:40:08;;;;;;;40.90;7.07;;;10.10;99.90;;;;;;5079510;27;37491;-76
2022/02/17 05:42:35;;;;;;;41.30;6.93;;;10.10;99.90;;;;;;5088220;27;39336;-77
2022/02/17 05:45:02;;;;;;;36.80;6.93;;;10.10;99.90;;;;;;5079226;27;37976;-75
2022/02/17 05:47:28;;;;;;;47.77;7.53;;;10.10;99.90;;;;;;5077672;27;39703;-77
2022/02/17 05:49:54;;;;;;;41.53;6.20;;;10.10;99.90;;;;;;5077283;27;38412;-77
2022/02/17 05:52:20;;;;;;;31.67;6.37;;;10.00;99.90;;;;;;5075432;27;39184;-76
2022/02/17 05:54:46;;;;;;;41.57;6.83;;;10.00;99.90;;;;;;5079647;27;37363;-78
2022/02/17 05:57:12;;;;;;;33.87;5.60;;;10.00;99.90;;;;;;5079691;27;40033;-77
2022/02/17 05:59:39;;;;;;;41.57;6.83;;;9.90;99.90;;;;;;5077436;27;37719;-77
2022/02/17 06:02:06;;;;;;;39.93;6.77;;;9.80;99.90;;;;;;5076919;27;38812;-77
2022/02/17 06:04:32;;;;;;;37.50;6.53;;;9.80;99.90;;;;;;5084835;27;40016;-78
2022/02/17 06:06:58;;;;;;;43.63;7.03;;;9.80;99.90;;;;;;5089382;27;40131;-78
2022/02/17 06:09:24;;;;;;;36.43;6.03;;;9.70;99.90;;;;;;5076489;27;38895;-77
2022/02/17 06:11:50;;;;;;;37.77;5.73;;;9.80;99.90;;;;;;5076803;27;38797;-78
2022/02/17 06:14:16;;;;;;;39.10;5.93;;;9.80;99.90;;;;;;5085046;27;41204;-78
2022/02/17 06:16:42;;;;;;;29.27;5.13;;;9.70;99.90;;;;;;5083194;27;40653;-77
2022/02/17 06:19:08;;;;;;;28.47;5.03;;;9.70;99.90;;;;;;5084377;27;39501;-77
2022/02/17 06:21:34;;;;;;;32.07;6.47;;;9.70;99.90;;;;;;5085306;27;39742;-77
2022/02/17 06:24:00;;;;;;;30.00;5.60;;;9.70;99.90;;;;;;5083457;27;37740;-77
2022/02/17 06:26:26;;;;;;;31.40;5.53;;;9.70;99.90;;;;;;5086882;27;39084;-77
2022/02/17 06:28:52;;;;;;;36.47;5.80;;;9.60;99.90;;;;;;5066297;28;39237;-78
2022/02/17 06:31:18;;;;;;;36.67;6.50;;;9.70;99.90;;;;;;5077792;27;39044;-77
2022/02/17 06:33:45;;;;;;;31.77;5.43;;;9.70;99.90;;;;;;5083308;27;37662;-77
2022/02/17 06:36:16;;;;;;;36.57;6.10;;;9.70;99.90;;;;;;5082523;27;38421;-76
2022/02/17 06:38:43;;;;;;;27.23;5.93;;;9.70;99.90;;;;;;5089670;27;38447;-77
2022/02/17 06:41:09;;;;;;;39.20;6.03;;;9.70;99.90;;;;;;5088452;27;38697;-77
2022/02/17 06:43:36;;;;;;;40.20;5.57;;;9.60;99.90;;;;;;5081687;27;36956;-77
2022/02/17 06:46:03;;;;;;;26.03;4.67;;;9.60;99.90;;;;;;5074242;27;39301;-76
2022/02/17 06:48:29;;;;;;;22.93;4.47;;;9.60;99.90;;;;;;5084473;27;39290;-77
2022/02/17 06:50:57;;;;;;;25.30;4.60;;;9.60;99.90;;;;;;5090801;27;37841;-77
2022/02/17 06:53:23;;;;;;;19.70;3.37;;;9.60;99.90;;;;;;5077709;27;37354;-78
2022/02/17 06:55:49;;;;;;;18.80;3.93;;;9.50;99.90;;;;;;5076062;27;40769;-77
2022/02/17 06:58:16;;;;;;;26.77;4.43;;;9.50;99.90;;;;;;5079395;27;39350;-77
2022/02/17 07:00:42;;;;;;;23.17;4.83;;;9.50;99.90;;;;;;5085202;27;37820;-77
2022/02/17 07:03:09;;;;;;;25.80;4.30;;;9.50;99.90;;;;;;5082341;27;39168;-78
2022/02/17 07:05:36;;;;;;;23.17;4.00;;;9.50;99.90;;;;;;5100123;27;39880;-78
2022/02/17 07:08:03;;;;;;;21.67;4.57;;;9.40;99.90;;;;;;5078816;27;38878;-78
2022/02/17 07:13:14;;;;;;;24.07;4.57;;;9.40;99.90;;;;;;5106138;27;38529;-79
2022/02/17 07:15:40;;;;;;;28.33;4.83;;;9.30;99.90;;;;;;5104511;27;38666;-79
2022/02/17 07:18:09;;;;;;;30.40;5.43;;;9.30;99.90;;;;;;5098221;27;39211;-79
2022/02/17 07:20:40;;;;;;;26.53;4.23;;;9.30;99.90;;;;;;5085487;28;39104;-80
2022/02/17 07:23:06;;;;;;;24.53;3.70;;;9.30;99.90;;;;;;5088721;27;38005;-78
2022/02/17 07:25:32;;;;;;;23.20;4.23;;;9.30;99.90;;;;;;5112084;27;39277;-80
2022/02/17 07:27:58;;;;;;;30.07;4.37;;;9.30;99.90;;;;;;5092624;27;38627;-79
2022/02/17 07:30:24;;;;;;;28.53;4.67;;;9.30;99.90;;;;;;5108150;27;38727;-79
2022/02/17 07:32:51;;;;;;;30.40;4.47;;;9.30;99.90;;;;;;5112232;27;37657;-79
2022/02/17 07:35:18;;;;;;;26.50;4.30;;;9.30;99.90;;;;;;5093223;27;40885;-79
2022/02/17 07:37:44;;;;;;;32.57;4.80;;;9.20;99.90;;;;;;5109101;27;38131;-78
2022/02/17 07:40:11;;;;;;;21.70;4.23;;;9.20;99.90;;;;;;5103222;27;37980;-78
2022/02/17 07:42:39;;;;;;;21.87;3.83;;;9.20;99.90;;;;;;5107158;27;36921;-78
2022/02/17 07:45:05;;;;;;;23.67;4.17;;;9.30;99.90;;;;;;5097340;27;39767;-78
2022/02/17 07:47:31;;;;;;;20.73;4.03;;;9.30;99.90;;;;;;5104746;27;40017;-79
2022/02/17 07:49:57;;;;;;;16.60;2.53;;;9.30;99.90;;;;;;5086285;27;39292;-79
2022/02/17 07:52:24;;;;;;;19.47;3.27;;;9.30;99.90;;;;;;5110114;27;38128;-80
2022/02/17 07:54:51;;;;;;;18.27;2.97;;;9.40;99.90;;;;;;5081638;27;40803;-79
2022/02/17 07:57:17;;;;;;;24.60;4.40;;;9.50;99.90;;;;;;5104359;27;39101;-79
2022/02/17 07:59:43;;;;;;;16.03;3.70;;;9.40;99.90;;;;;;5086351;28;39621;-78
2022/02/17 08:02:10;;;;;;;22.90;3.23;;;9.40;99.90;;;;;;5102565;27;37581;-78
2022/02/17 08:04:36;;;;;;;18.80;3.13;;;9.50;99.90;;;;;;5091351;27;39591;-78
2022/02/17 08:07:04;;;;;;;27.07;4.30;;;9.40;99.90;;;;;;5100125;27;38917;-77
2022/02/17 08:09:31;;;;;;;27.53;4.40;;;9.30;99.90;;;;;;5088368;27;39912;-78
2022/02/17 08:11:57;;;;;;;24.57;4.67;;;9.30;99.90;;;;;;5082209;27;39287;-79
2022/02/17 08:14:23;;;;;;;30.73;4.97;;;9.40;99.90;;;;;;5099607;27;38504;-78
2022/02/17 08:16:49;;;;;;;22.93;4.47;;;9.40;99.90;;;;;;5105763;27;38204;-80
2022/02/17 08:19:15;;;;;;;22.03;4.07;;;9.40;99.90;;;;;;5101186;27;38075;-78
2022/02/17 08:21:42;;;;;;;27.67;4.67;;;9.40;99.90;;;;;;5088231;27;37913;-78
2022/02/17 08:24:08;;;;;;;22.67;4.10;;;9.40;99.90;;;;;;5088575;27;39151;-79
2022/02/17 08:26:34;;;;;;;18.07;4.10;;;9.50;99.90;;;;;;5088096;27;38913;-79
2022/02/17 08:29:01;;;;;;;27.43;4.53;;;9.60;99.90;;;;;;5105711;27;37271;-79
2022/02/17 08:31:28;;;;;;;26.07;4.43;;;9.60;99.90;;;;;;5103110;27;37060;-78
2022/02/17 08:33:55;;;;;;;27.53;4.43;;;9.60;99.90;;;;;;5091569;27;39864;-80
2022/02/17 08:36:22;;;;;;;21.87;3.50;;;9.70;99.90;;;;;;5100460;27;38757;-78
2022/02/17 08:38:48;;;;;;;19.23;3.30;;;9.60;99.90;;;;;;5087050;27;38746;-81
2022/02/17 08:41:14;;;;;;;29.40;4.07;;;9.60;99.90;;;;;;5102545;27;37195;-78
2022/02/17 08:43:40;;;;;;;23.67;4.30;;;9.70;99.90;;;;;;5086866;27;39284;-79
2022/02/17 08:46:06;;;;;;;21.03;3.33;;;9.70;99.90;;;;;;5093466;27;39414;-79
2022/02/17 08:48:32;;;;;;;23.97;3.40;;;9.70;99.90;;;;;;5106360;27;38126;-78
2022/02/17 08:50:58;;;;;;;15.90;3.50;;;9.70;99.90;;;;;;5104540;27;37683;-79
2022/02/17 08:53:24;;;;;;;25.33;3.80;;;9.60;99.90;;;;;;5087179;27;40633;-78
2022/02/17 08:55:50;;;;;;;25.60;4.17;;;9.70;99.90;;;;;;5089544;27;40294;-78
2022/02/17 08:58:16;;;;;;;29.67;6.13;;;9.70;99.90;;;;;;5087092;28;38464;-79
2022/02/17 09:00:42;;;;;;;19.30;4.23;;;9.70;99.90;;;;;;5085676;27;38041;-79
2022/02/17 09:03:12;;;;;;;23.03;3.80;;;9.80;99.90;;;;;;5112949;27;38911;-78
2022/02/17 09:05:39;;;;;;;15.93;2.87;;;9.80;99.90;;;;;;5099419;27;37900;-78
2022/02/17 09:08:06;;;;;;;18.03;3.17;;;9.80;99.90;;;;;;5083703;27;40250;-78
2022/02/17 09:10:32;;;;;;;16.47;2.80;;;9.80;99.90;;;;;;5082546;27;36214;-79
2022/02/17 09:12:59;;;;;;;15.77;2.63;;;9.80;99.90;;;;;;5084037;27;39177;-78
2022/02/17 09:15:25;;;;;;;16.93;2.83;;;9.90;99.90;;;;;;5103931;27;38303;-78
2022/02/17 09:17:51;;;;;;;15.67;2.97;;;9.90;99.90;;;;;;5109259;28;38167;-78
2022/02/17 09:20:17;;;;;;;14.47;2.70;;;9.90;99.90;;;;;;5101803;27;37828;-78
2022/02/17 09:22:43;;;;;;;15.93;3.17;;;9.90;99.90;;;;;;5085276;27;39734;-79
2022/02/17 09:25:11;;;;;;;25.40;4.27;;;9.90;99.90;;;;;;5085808;27;39791;-77
2022/02/17 09:27:38;;;;;;;20.30;3.67;;;9.90;99.90;;;;;;5098792;27;39312;-78
2022/02/17 09:30:06;;;;;;;22.93;4.27;;;9.90;99.90;;;;;;5087346;27;38388;-78
2022/02/17 09:32:32;;;;;;;21.60;3.43;;;9.90;99.90;;;;;;5107106;27;47892;-79
2022/02/17 09:34:59;;;;;;;20.27;3.47;;;10.00;99.90;;;;;;5099285;27;38500;-78
2022/02/17 09:37:26;;;;;;;19.50;3.87;;;10.00;99.90;;;;;;5103785;27;36954;-78
2022/02/17 09:39:53;;;;;;;15.17;3.57;;;10.00;99.90;;;;;;5089280;27;38115;-79
2022/02/17 09:42:19;;;;;;;16.10;3.50;;;10.00;99.90;;;;;;5079535;27;38102;-78
2022/02/17 09:44:45;;;;;;;18.73;3.13;;;10.00;99.90;;;;;;5081219;27;40973;-78
2022/02/17 09:47:12;;;;;;;19.13;3.40;;;10.00;99.90;;;;;;5083144;27;37233;-77
2022/02/17 09:49:42;;;;;;;21.33;3.13;;;10.00;99.90;;;;;;5097823;27;37339;-78
2022/02/17 09:52:11;;;;;;;15.17;3.30;;;10.00;99.90;;;;;;5103800;27;20224;-79
2022/02/17 09:54:37;;;;;;;20.77;3.03;;;10.00;99.90;;;;;;5087327;27;38782;-78
2022/02/17 09:57:04;;;;;;;11.57;2.20;;;10.00;99.90;;;;;;5099458;27;38432;-78
2022/02/17 09:59:31;;;;;;;15.07;2.53;;;10.00;99.90;;;;;;5086160;27;34171;-78
2022/02/17 10:01:59;;;;;;;15.87;2.80;;;10.10;99.90;;;;;;5099553;27;39043;-78
2022/02/17 10:04:27;;;;;;;20.03;3.33;;;10.10;99.90;;;;;;5085088;27;38516;-78
2022/02/17 10:06:56;;;;;;;16.37;2.47;;;10.10;99.90;;;;;;5091838;27;39110;-79
2022/02/17 10:09:46;;;;;;;18.60;3.07;;;10.10;99.90;;;;;;5082106;28;39013;-80
2022/02/17 10:12:13;;;;;;;23.80;3.33;;;10.10;99.90;;;;;;5060272;27;38569;-79
2022/02/17 10:14:40;;;;;;;16.00;2.70;;;10.20;99.90;;;;;;5085640;27;39300;-78
2022/02/17 10:17:11;;;;;;;19.30;3.10;;;10.20;99.90;;;;;;5089065;27;37529;-78
2022/02/17 10:19:47;;;;;;;19.83;2.70;;;10.20;99.90;;;;;;5089019;27;39097;-79
2022/02/17 10:22:15;;;;;;;18.53;2.73;;;10.30;99.90;;;;;;5085194;27;37768;-79
2022/02/17 10:24:49;;;;;;;14.73;2.80;;;10.30;99.90;;;;;;5087797;27;37703;-79
2022/02/17 10:27:30;;;;;;;19.47;2.93;;;10.30;99.90;;;;;;5077446;27;39560;-79
2022/02/17 10:30:12;;;;;;;15.83;2.63;;;10.30;99.90;;;;;;5083260;27;37396;-77
2022/02/17 10:33:00;;;;;;;15.23;2.93;;;10.40;99.90;;;;;;5081514;28;47167;-79
2022/02/17 10:35:28;;;;;;;15.73;2.63;;;10.40;99.90;;;;;;5078511;28;40401;-79
2022/02/17 10:37:56;;;;;;;21.13;3.27;;;10.40;99.90;;;;;;5051401;28;39214;-79
2022/02/17 10:40:31;;;;;;;14.03;2.87;;;10.40;99.90;;;;;;5086450;27;37577;-78
2022/02/17 10:43:03;;;;;;;19.00;3.13;;;10.50;99.90;;;;;;5109099;27;38968;-78
2022/02/17 10:45:30;;;;;;;21.88;3.30;;;10.50;99.90;;;;;;5092078;27;47122;-77
2022/02/17 10:48:19;;;;;;;17.70;3.60;;;10.60;99.90;;;;;;5104037;27;37931;-76
2022/02/17 10:51:01;;;;;;;23.20;4.27;;;10.60;99.90;;;;;;5072235;27;47127;-77
2022/02/17 10:53:27;;;;;;;19.90;3.57;;;10.50;99.90;;;;;;5102388;27;48880;-78
2022/02/17 10:55:57;;;;;;;13.43;2.70;;;10.60;99.90;;;;;;5082131;27;37901;-78
2022/02/17 10:58:27;;;;;;;18.67;3.10;;;10.50;99.90;;;;;;5116591;27;38864;-80
2022/02/17 11:00:55;;;;;;;19.70;4.90;;;10.50;99.90;;;;;;5082479;27;36835;-78
2022/02/17 11:03:21;;;;;;;19.87;2.97;;;10.50;99.90;;;;;;5091973;27;39629;-78
2022/02/17 11:05:49;;;;;;;15.10;2.80;;;10.50;99.90;;;;;;5105738;27;38528;-76
2022/02/17 11:08:16;;;;;;;17.40;2.93;;;10.60;99.90;;;;;;5085888;27;38199;-79
2022/02/17 11:10:43;;;;;;;18.33;2.90;;;10.70;99.90;;;;;;5100219;27;37399;-77
2022/02/17 11:13:12;;;;;;;18.13;3.20;;;10.80;99.90;;;;;;5070297;27;40534;-77
2022/02/17 11:15:40;;;;;;;17.43;2.83;;;10.80;99.90;;;;;;5097777;27;38994;-77
2022/02/17 11:18:07;;;;;;;16.10;3.00;;;10.90;99.90;;;;;;5109124;27;38134;-76
2022/02/17 11:20:37;;;;;;;15.90;3.23;;;11.10;99.90;;;;;;5088505;27;37368;-76
2022/02/17 11:23:04;;;;;;;14.45;3.70;;;11.20;99.90;;;;;;5081681;27;37759;-77
2022/02/17 11:25:39;;;;;;;14.43;2.78;;;11.10;99.90;;;;;;5105282;27;38792;-77
2022/02/17 11:28:06;;;;;;;15.70;2.60;;;11.10;99.90;;;;;;5097522;27;39440;-77
2022/02/17 11:30:34;;;;;;;20.95;3.72;;;11.10;99.90;;;;;;5074267;27;37485;-76
2022/02/17 11:33:22;;;;;;;19.53;3.37;;;11.20;99.90;;;;;;5100896;27;38621;-77
2022/02/17 11:35:53;;;;;;;19.57;3.43;;;11.40;99.90;;;;;;5100821;27;48984;-76
2022/02/17 11:38:34;;;;;;;23.73;3.33;;;11.20;99.90;;;;;;5108071;27;38899;-77
2022/02/17 11:41:15;;;;;;;22.30;3.63;;;11.20;99.90;;;;;;5113118;27;37322;-76
2022/02/17 11:43:47;;;;;;;17.23;3.43;;;11.20;99.90;;;;;;5087067;27;47122;-80
2022/02/17 11:46:15;;;;;;;18.63;3.27;;;11.30;99.90;;;;;;5089739;27;39066;-78
2022/02/17 11:48:51;;;;;;;19.27;3.60;;;11.30;99.90;;;;;;5070808;28;38074;-77
2022/02/17 11:51:24;;;;;;;14.03;3.30;;;11.50;99.90;;;;;;5084595;28;36225;-76
2022/02/17 11:54:16;;;;;;;21.13;3.53;;;11.50;99.90;;;;;;5066859;28;39597;-77
2022/02/17 11:56:45;;;;;;;22.60;4.97;;;11.60;99.90;;;;;;5117249;27;47520;-77
2022/02/17 11:59:19;;;;;;;26.23;4.18;;;11.70;99.90;;;;;;5099943;27;37860;-76
2022/02/17 12:01:45;;;;;;;16.60;3.17;;;11.60;99.90;;;;;;5101696;27;38102;-76
2022/02/17 12:04:18;;;;;;;24.58;4.20;;;11.60;99.90;;;;;;5108709;27;39377;-77
2022/02/17 12:06:53;;;;;;;21.70;4.10;;;11.60;99.90;;;;;;5105681;27;38000;-76
2022/02/17 12:09:38;;;;;;;27.27;4.22;;;11.60;99.90;;;;;;5102732;27;37465;-77
2022/02/17 12:12:15;;;;;;;29.95;5.00;;;11.80;99.90;;;;;;5099350;27;37665;-76
2022/02/17 12:14:46;;;;;;;20.83;4.47;;;11.70;99.90;;;;;;5093190;27;38074;-76
2022/02/17 12:17:12;;;;;;;25.75;4.13;;;11.60;99.90;;;;;;5088494;27;38938;-76
2022/02/17 12:19:39;;;;;;;34.90;4.57;;;11.70;99.90;;;;;;5088405;27;36993;-75
2022/02/17 12:22:13;;;;;;;26.52;4.63;;;11.70;99.90;;;;;;5104291;27;37128;-76
2022/02/17 12:24:43;;;;;;;23.73;3.80;;;11.70;99.90;;;;;;5109169;28;38563;-76
2022/02/17 12:27:10;;;;;;;23.52;4.22;;;11.70;99.90;;;;;;5095298;27;37282;-77
2022/02/17 12:29:38;;;;;;;24.63;4.40;;;11.70;99.90;;;;;;5119170;27;38009;-77
2022/02/17 12:32:06;;;;;;;22.35;4.45;;;11.70;99.90;;;;;;5107733;27;37267;-76
2022/02/17 12:34:33;;;;;;;22.35;4.82;;;11.70;99.90;;;;;;5109554;27;40913;-77
2022/02/17 12:37:00;;;;;;;22.02;3.75;;;11.70;99.90;;;;;;5093285;27;38896;-77
2022/02/17 12:39:30;;;;;;;21.55;3.60;;;11.90;99.90;;;;;;5088991;27;37817;-76
2022/02/17 12:42:04;;;;;;;21.23;3.97;;;12.10;99.90;;;;;;5106761;27;37680;-77
2022/02/17 12:44:35;;;;;;;20.45;3.90;;;12.10;99.90;;;;;;5097153;27;47214;-77
2022/02/17 12:47:04;;;;;;;18.60;2.92;;;12.10;99.90;;;;;;5108154;27;38416;-75